Cedar Park's Hourly Summary for Wednesday, April 19, 2017
Hour Temp
(f)
RH
(%)
Solar Rad.
(MJ/m2)
Rainfall
(in)
Wind
(mph)
4/19/2017 12:00 AM 67 99 0 0 3.14
4/19/2017 1:00 AM 66 99 0 0 2.88
4/19/2017 2:00 AM 66 100 0 0 2.15
4/19/2017 3:00 AM 66 100 0 0 2.68
4/19/2017 4:00 AM 66 100 0 0 2.86
4/19/2017 5:00 AM 66 100 0 0 3.34
4/19/2017 6:00 AM 66 100 0 0 2.29
4/19/2017 7:00 AM 65 100 0 0 2.09
4/19/2017 8:00 AM 65 100 0.05 0 2.29
4/19/2017 9:00 AM 66 100 0.26 0 2.82
4/19/2017 10:00 AM 67 99 0.5 0 3.51
4/19/2017 11:00 AM 70 81 0.93 0 3.1
4/19/2017 12:00 PM 72 69 1.41 0 3.59
4/19/2017 1:00 PM 74 64 2.22 0 4.14
4/19/2017 2:00 PM 77 58 2.57 0 4.78
4/19/2017 3:00 PM 78 54 2.62 0 5.05
4/19/2017 4:00 PM 79 54 2.21 0 5.67
4/19/2017 5:00 PM 80 52 2 0 5.98
4/19/2017 6:00 PM 79 58 0.93 0 5.36
4/19/2017 7:00 PM 78 58 0.27 0 5.86
4/19/2017 8:00 PM 77 62 0.1 0 5.23
4/19/2017 9:00 PM 74 71 0 0 3.66
4/19/2017 10:00 PM 73 75 0 0 5.27
4/19/2017 11:00 PM 72 80 0 0 5.73
Data Summary 71 80 16.07 0.00 3.89